Time;durP1;ratioP1;P1;durP2;ratioP2;P2;SDS_P1;SDS_P2;PMS_P1;PMS_P2;Temp;Humidity;BMP_temperature;BMP_pressure;BME280_temperature;BME280_humidity;BME280_pressure;Samples;Min_cycle;Max_cycle;Signal;HPM_P1;HPM_P2
2023/11/17 00:01:58;;;;;;;8.25;5.20;;;;;;;9.65;61.15;99891.09;5113146;28;20379;-39
2023/11/17 00:04:24;;;;;;;8.63;5.30;;;;;;;9.31;62.81;99879.41;5113208;28;20044;-38
2023/11/17 00:06:49;;;;;;;9.85;4.70;;;;;;;9.40;61.22;99874.75;5112932;28;20032;-41
2023/11/17 00:09:15;;;;;;;11.10;5.00;;;;;;;9.45;62.17;99871.56;5113468;28;20073;-38
2023/11/17 00:11:41;;;;;;;10.80;5.53;;;;;;;9.33;63.05;99882.69;5113231;28;20027;-37
2023/11/17 00:14:07;;;;;;;7.97;5.18;;;;;;;9.57;62.15;99875.31;5112898;28;20029;-38
2023/11/17 00:16:33;;;;;;;8.27;5.13;;;;;;;9.51;61.61;99871.59;5112981;28;20068;-38
2023/11/17 00:18:59;;;;;;;11.00;5.03;;;;;;;9.50;62.40;99869.13;5113083;28;20018;-38
2023/11/17 00:21:24;;;;;;;9.57;5.03;;;;;;;9.35;63.42;99864.72;5112862;28;20383;-39
2023/11/17 00:23:50;;;;;;;10.38;5.07;;;;;;;9.24;64.46;99878.53;5112966;28;20106;-39
2023/11/17 00:26:17;;;;;;;9.50;4.95;;;;;;;9.07;65.31;99872.66;5112628;28;20102;-39
2023/11/17 00:28:42;;;;;;;11.70;5.05;;;;;;;9.19;63.26;99857.88;5112972;28;20027;-39
2023/11/17 00:31:09;;;;;;;9.20;5.18;;;;;;;9.16;62.09;99847.63;5112913;28;20036;-39
2023/11/17 00:33:40;;;;;;;8.55;5.18;;;;;;;9.25;62.10;99844.81;5113217;28;20019;-37
2023/11/17 00:36:06;;;;;;;9.32;5.35;;;;;;;9.05;63.04;99848.13;5112600;28;20499;-38
2023/11/17 00:38:32;;;;;;;11.93;5.50;;;;;;;9.00;64.14;99834.59;5112769;28;20031;-37
2023/11/17 00:41:02;;;;;;;9.23;4.90;;;;;;;8.70;64.50;99841.88;5112770;28;20020;-40
2023/11/17 00:43:28;;;;;;;12.15;5.32;;;;;;;8.99;65.76;99847.06;5112600;28;20031;-38
2023/11/17 00:46:00;;;;;;;10.52;5.15;;;;;;;9.05;63.37;99842.03;5111442;28;20016;-38
2023/11/17 00:48:30;;;;;;;12.15;5.38;;;;;;;9.17;62.26;99845.78;5112602;28;20116;-38
2023/11/17 00:50:56;;;;;;;8.88;5.25;;;;;;;9.16;61.68;99834.34;5112632;28;20455;-39
2023/11/17 00:53:29;;;;;;;7.50;4.57;;;;;;;9.07;63.04;99838.16;5112924;28;20033;-39
2023/11/17 00:55:55;;;;;;;10.68;5.07;;;;;;;8.89;65.00;99840.44;5113408;28;20124;-36
2023/11/17 00:58:21;;;;;;;9.43;4.75;;;;;;;8.96;65.38;99844.78;5112775;28;20028;-39
2023/11/17 01:00:46;;;;;;;7.43;4.68;;;;;;;8.96;65.39;99838.66;5113016;28;20077;-40
2023/11/17 01:03:12;;;;;;;8.73;4.60;;;;;;;9.09;65.49;99830.00;5112901;28;20095;-39
2023/11/17 01:05:38;;;;;;;8.13;4.82;;;;;;;9.16;65.24;99828.22;5112784;28;20020;-39
2023/11/17 01:08:04;;;;;;;11.13;5.13;;;;;;;9.45;63.65;99829.06;5112720;28;20122;-38
2023/11/17 01:10:30;;;;;;;10.45;4.93;;;;;;;9.20;64.17;99822.31;5112692;28;20095;-41
2023/11/17 01:12:56;;;;;;;10.50;5.13;;;;;;;9.07;65.07;99819.56;5112316;28;20098;-39
2023/11/17 01:15:21;;;;;;;8.13;4.88;;;;;;;8.99;66.32;99815.22;5112038;28;20024;-39
2023/11/17 01:17:46;;;;;;;9.52;5.32;;;;;;;9.04;66.42;99813.81;5112400;28;20023;-38
2023/11/17 01:20:12;;;;;;;10.13;5.68;;;;;;;9.14;65.38;99807.19;5112240;28;20442;-38
2023/11/17 01:22:39;;;;;;;10.93;6.15;;;;;;;9.11;64.71;99807.53;5112277;28;20035;-36
2023/11/17 01:25:05;;;;;;;10.88;6.00;;;;;;;9.10;63.35;99797.13;5112222;28;20102;-39
2023/11/17 01:27:30;;;;;;;11.82;6.95;;;;;;;9.07;62.99;99784.25;5111967;28;20024;-39
2023/11/17 01:29:56;;;;;;;16.63;7.35;;;;;;;8.57;64.97;99786.88;5112123;28;20072;-37
2023/11/17 01:32:22;;;;;;;13.52;8.38;;;;;;;8.92;63.54;99773.69;5112236;28;20115;-39
2023/11/17 01:34:48;;;;;;;13.75;7.95;;;;;;;9.00;64.11;99754.97;5111835;28;20120;-38
2023/11/17 01:37:13;;;;;;;13.80;7.65;;;;;;;8.88;64.62;99751.22;5111844;28;20047;-39
2023/11/17 01:39:38;;;;;;;13.88;8.23;;;;;;;8.78;65.40;99756.84;5111884;28;20476;-38
2023/11/17 01:42:04;;;;;;;13.45;7.07;;;;;;;8.98;66.31;99757.00;5112019;28;20057;-39
2023/11/17 01:44:29;;;;;;;13.60;7.05;;;;;;;8.95;65.84;99738.84;5111859;28;20015;-38
2023/11/17 01:46:55;;;;;;;15.25;7.18;;;;;;;9.01;65.66;99759.28;5111536;28;20060;-40
2023/11/17 01:49:22;;;;;;;15.32;7.55;;;;;;;8.68;65.67;99753.69;5112261;28;20065;-38
2023/11/17 01:51:49;;;;;;;14.63;7.68;;;;;;;8.56;65.99;99750.75;5111899;28;20129;-38
2023/11/17 01:54:14;;;;;;;13.32;7.60;;;;;;;8.65;65.67;99754.91;5111787;28;20072;-39
2023/11/17 01:56:40;;;;;;;11.57;6.95;;;;;;;8.55;66.73;99770.31;5112107;28;20024;-40
2023/11/17 01:59:06;;;;;;;15.25;7.18;;;;;;;8.54;67.89;99769.50;5111698;28;20024;-36
2023/11/17 02:01:31;;;;;;;14.55;8.18;;;;;;;8.47;69.27;99773.91;5111883;28;20114;-39
2023/11/17 02:03:58;;;;;;;17.98;9.07;;;;;;;8.48;68.22;99767.59;5111632;28;20374;-39
2023/11/17 02:06:42;;;;;;;18.17;9.60;;;;;;;8.37;68.99;99770.72;5111667;28;20094;-39
2023/11/17 02:09:16;;;;;;;19.02;9.10;;;;;;;8.45;69.94;99767.97;5111625;28;20024;-36
2023/11/17 02:11:54;;;;;;;14.73;8.90;;;;;;;8.15;70.90;99751.34;5111807;28;20456;-39
2023/11/17 02:14:21;;;;;;;17.42;9.43;;;;;;;8.34;69.53;99750.72;5111599;28;20106;-38
2023/11/17 02:16:51;;;;;;;18.10;9.70;;;;;;;8.20;69.83;99752.38;5111536;28;20015;-40
2023/11/17 02:19:30;;;;;;;19.45;10.52;;;;;;;8.29;69.38;99754.94;5111456;28;20460;-38
2023/11/17 02:22:02;;;;;;;21.90;9.55;;;;;;;8.07;70.32;99765.50;5114007;27;20106;-39
2023/11/17 02:24:31;;;;;;;19.42;11.07;;;;;;;8.06;70.98;99761.22;5132101;27;20028;-39
2023/11/17 02:27:29;;;;;;;19.23;10.50;;;;;;;7.80;71.82;99754.56;5132147;28;20106;-40
2023/11/17 02:30:02;;;;;;;21.75;11.48;;;;;;;7.83;71.01;99738.31;5131805;28;20027;-39
2023/11/17 02:32:29;;;;;;;22.85;12.02;;;;;;;7.63;72.20;99735.44;5132202;28;20084;-38
2023/11/17 02:34:55;;;;;;;19.80;11.75;;;;;;;7.60;72.36;99729.69;5111399;28;20062;-39
2023/11/17 02:37:24;;;;;;;18.88;11.23;;;;;;;7.36;73.53;99728.94;5119413;28;20092;-39
2023/11/17 02:39:54;;;;;;;19.65;11.52;;;;;;;7.35;73.68;99729.13;5116103;28;20031;-39
2023/11/17 02:42:24;;;;;;;22.40;12.82;;;;;;;7.49;72.77;99735.44;5111353;28;20032;-40
2023/11/17 02:44:50;;;;;;;23.75;13.45;;;;;;;7.58;72.37;99739.66;5111252;28;20023;-38
2023/11/17 02:47:27;;;;;;;22.10;12.77;;;;;;;7.51;72.65;99738.72;5117130;28;20055;-39
2023/11/17 02:49:58;;;;;;;21.90;12.27;;;;;;;7.76;71.10;99728.66;5131624;28;20077;-40
2023/11/17 02:52:42;;;;;;;20.10;11.63;;;;;;;7.59;71.51;99728.84;5113729;28;20067;-40
2023/11/17 02:55:12;;;;;;;22.30;10.88;;;;;;;7.59;70.78;99718.25;5131762;28;20075;-40
2023/11/17 02:57:38;;;;;;;25.08;10.57;;;;;;;7.63;71.31;99721.34;5132090;28;20032;-39
2023/11/17 03:00:06;;;;;;;19.27;9.52;;;;;;;7.60;69.96;99704.00;5131546;28;20019;-39
2023/11/17 03:02:32;;;;;;;16.08;8.90;;;;;;;7.57;69.79;99680.53;5112795;28;20038;-39
2023/11/17 03:04:57;;;;;;;13.93;8.15;;;;;;;7.86;68.14;99670.06;5131740;28;20024;-40
2023/11/17 03:07:22;;;;;;;13.07;7.75;;;;;;;7.58;69.76;99670.78;5131314;28;20465;-40
2023/11/17 03:09:51;;;;;;;14.60;8.20;;;;;;;7.47;71.67;99677.38;5132960;27;20087;-37
2023/11/17 03:12:17;;;;;;;15.07;8.18;;;;;;;7.36;71.99;99691.88;5135602;27;20023;-39
2023/11/17 03:14:42;;;;;;;14.40;7.68;;;;;;;7.57;71.49;99703.56;5135346;27;20030;-38
2023/11/17 03:17:09;;;;;;;13.10;7.72;;;;;;;7.37;70.59;99684.78;5126789;27;20024;-39
2023/11/17 03:19:36;;;;;;;14.13;7.75;;;;;;;7.63;69.18;99671.88;5114410;28;20079;-39
2023/11/17 03:22:03;;;;;;;12.93;7.30;;;;;;;7.44;69.98;99673.28;5114752;28;20102;-39
2023/11/17 03:24:29;;;;;;;15.73;8.02;;;;;;;7.55;70.36;99687.03;5114859;28;20084;-38
2023/11/17 03:26:56;;;;;;;22.23;10.48;;;;;;;7.63;69.35;99681.63;5114697;28;20019;-39
2023/11/17 03:29:24;;;;;;;17.15;9.05;;;;;;;7.53;70.90;99659.91;5114597;28;20243;-38
2023/11/17 03:31:52;;;;;;;14.90;8.48;;;;;;;7.42;70.44;99648.81;5114238;28;20396;-39
2023/11/17 03:34:23;;;;;;;12.93;7.72;;;;;;;7.57;71.77;99658.53;5114609;28;20432;-38
2023/11/17 03:37:00;;;;;;;13.90;7.60;;;;;;;7.54;69.09;99662.38;5114611;28;20027;-39
2023/11/17 03:39:42;;;;;;;13.52;7.50;;;;;;;7.76;70.60;99655.28;5114367;28;20415;-39
2023/11/17 03:42:18;;;;;;;12.65;7.57;;;;;;;7.84;67.90;99635.81;5114048;28;20106;-39
2023/11/17 03:44:44;;;;;;;13.27;7.35;;;;;;;7.51;70.02;99624.88;5113947;28;20474;-38
2023/11/17 03:47:12;;;;;;;14.10;7.65;;;;;;;7.76;68.98;99618.19;5113308;28;20048;-39
2023/11/17 03:49:37;;;;;;;13.57;7.45;;;;;;;7.68;69.23;99622.81;5113687;28;20161;-39
2023/11/17 03:52:03;;;;;;;17.35;7.57;;;;;;;7.88;70.60;99626.50;5114041;28;20073;-38
2023/11/17 03:54:29;;;;;;;12.82;7.22;;;;;;;7.91;71.62;99635.88;5114041;28;20023;-39
2023/11/17 03:56:56;;;;;;;17.58;9.10;;;;;;;7.64;71.31;99619.72;5113963;28;20027;-39
2023/11/17 03:59:22;;;;;;;12.90;7.43;;;;;;;8.09;67.23;99622.19;5114102;28;20163;-40
2023/11/17 04:01:49;;;;;;;15.00;8.23;;;;;;;7.91;69.36;99620.00;5118058;27;20112;-36
2023/11/17 04:04:18;;;;;;;11.90;7.32;;;;;;;8.23;66.91;99622.13;5112839;27;20027;-39
2023/11/17 04:06:45;;;;;;;11.82;6.78;;;;;;;7.95;67.15;99615.94;5113881;28;20028;-38
2023/11/17 04:09:15;;;;;;;12.52;7.18;;;;;;;7.87;66.64;99619.53;5113486;28;20027;-40
2023/11/17 04:11:41;;;;;;;13.98;7.30;;;;;;;7.82;66.87;99625.41;5115922;27;20019;-39
2023/11/17 04:14:07;;;;;;;12.13;6.63;;;;;;;7.90;66.33;99610.38;5133549;27;20570;-39
2023/11/17 04:16:33;;;;;;;11.68;7.13;;;;;;;7.65;67.56;99616.03;5131294;27;20107;-36
2023/11/17 04:18:59;;;;;;;14.60;7.40;;;;;;;7.80;66.90;99608.88;5113888;28;20054;-38
2023/11/17 04:21:25;;;;;;;12.18;6.65;;;;;;;7.99;66.11;99607.41;5113433;28;20103;-38
2023/11/17 04:23:50;;;;;;;17.48;6.55;;;;;;;7.61;66.53;99622.72;5113437;28;20016;-37
2023/11/17 04:26:16;;;;;;;10.70;6.60;;;;;;;7.36;68.58;99635.47;5113204;28;20042;-38
2023/11/17 04:28:43;;;;;;;11.10;6.78;;;;;;;7.16;69.39;99638.69;5113385;28;20027;-39
2023/11/17 04:31:09;;;;;;;10.95;6.78;;;;;;;7.52;68.63;99635.28;5113625;28;20028;-39
2023/11/17 04:33:35;;;;;;;12.20;6.80;;;;;;;7.51;68.20;99630.97;5095400;28;20029;-39
2023/11/17 04:36:01;;;;;;;13.38;6.80;;;;;;;7.72;67.51;99618.78;5113643;28;20088;-39
2023/11/17 04:38:26;;;;;;;11.00;6.25;;;;;;;7.51;67.48;99619.56;5113367;28;20024;-39
2023/11/17 04:40:52;;;;;;;12.57;7.13;;;;;;;7.18;68.59;99597.00;5113255;28;20499;-39
2023/11/17 04:43:18;;;;;;;12.85;7.35;;;;;;;7.48;68.30;99596.09;5113873;28;20031;-39
2023/11/17 04:45:44;;;;;;;17.45;7.47;;;;;;;7.58;67.77;99620.47;5113216;27;20019;-40
2023/11/17 04:48:13;;;;;;;13.27;7.20;;;;;;;7.52;67.49;99626.50;5095126;28;20127;-39
2023/11/17 04:50:39;;;;;;;;;;;;;;;7.89;67.91;99628.13;5113645;28;20029;-41
2023/11/17 04:53:06;;;;;;;17.83;7.60;;;;;;;7.44;69.03;99636.22;5112776;28;19986;-38
2023/11/17 04:55:31;;;;;;;14.02;7.55;;;;;;;7.44;70.73;99636.22;5110351;28;20024;-41
2023/11/17 04:57:56;;;;;;;13.63;6.93;;;;;;;7.66;68.38;99636.25;5112109;27;20019;-27
2023/11/17 05:00:23;;;;;;;14.55;7.82;;;;;;;7.71;68.73;99636.50;5094689;28;20023;-26
2023/11/17 05:02:49;;;;;;;18.55;8.05;;;;;;;7.48;69.93;99641.09;5113134;28;20023;-26
2023/11/17 05:05:15;;;;;;;15.57;8.15;;;;;;;7.04;72.71;99640.16;5113239;28;20051;-27
2023/11/17 05:07:44;;;;;;;16.33;10.25;;;;;;;7.17;72.86;99642.97;5113006;28;20050;-26
2023/11/17 05:10:11;;;;;;;18.10;9.13;;;;;;;7.49;71.69;99630.34;5113105;28;20046;-25
2023/11/17 05:12:37;;;;;;;15.75;8.88;;;;;;;7.44;71.82;99630.91;5113283;28;20024;-26
2023/11/17 05:15:04;;;;;;;15.45;8.60;;;;;;;7.63;71.35;99618.06;5113212;28;20470;-26
2023/11/17 05:17:30;;;;;;;15.65;9.27;;;;;;;7.43;72.04;99621.31;5111899;28;20024;-27
2023/11/17 05:20:00;;;;;;;19.25;9.23;;;;;;;7.34;72.31;99611.03;5111847;28;20125;-27
2023/11/17 05:22:25;;;;;;;24.52;9.38;;;;;;;7.68;71.10;99623.63;5111655;28;20103;-26
2023/11/17 05:24:53;;;;;;;15.98;8.90;;;;;;;7.50;71.89;99629.34;5111756;28;20202;-26
2023/11/17 05:27:18;;;;;;;18.13;9.27;;;;;;;7.30;73.47;99629.09;5111899;28;20035;-27
2023/11/17 05:29:44;;;;;;;17.95;10.60;;;;;;;7.37;73.46;99619.41;5111806;28;20132;-27
2023/11/17 05:32:09;;;;;;;19.23;9.40;;;;;;;7.66;72.85;99623.00;5111029;28;20729;-26
2023/11/17 05:34:35;;;;;;;15.23;8.35;;;;;;;7.66;73.15;99607.09;5112249;28;20060;-25
2023/11/17 05:37:01;;;;;;;13.90;7.97;;;;;;;7.52;73.04;99600.00;5112464;28;20149;-26
2023/11/17 05:39:26;;;;;;;17.10;8.73;;;;;;;7.60;72.85;99598.06;5112212;28;20027;-27
2023/11/17 05:41:52;;;;;;;16.48;9.73;;;;;;;7.67;72.33;99598.13;5112305;28;20369;-26
2023/11/17 05:44:18;;;;;;;16.40;9.10;;;;;;;7.55;73.20;99604.94;5111894;28;20043;-26
2023/11/17 05:46:44;;;;;;;17.88;8.98;;;;;;;7.59;73.26;99592.97;5110902;28;20062;-27
2023/11/17 05:49:09;;;;;;;20.80;9.35;;;;;;;7.63;73.37;99594.22;5110644;28;20039;-27
2023/11/17 05:51:35;;;;;;;15.32;9.13;;;;;;;7.59;74.33;99606.19;5111274;28;20457;-26
2023/11/17 05:54:01;;;;;;;17.38;8.98;;;;;;;8.44;71.50;99601.09;5111218;28;20023;-27
2023/11/17 05:56:26;;;;;;;18.30;8.77;;;;;;;8.94;69.04;99621.22;5111300;28;20447;-27
2023/11/17 05:58:52;;;;;;;14.38;9.25;;;;;;;9.37;67.65;99618.34;5111923;28;20024;-27
2023/11/17 06:01:17;;;;;;;18.08;9.32;;;;;;;9.63;66.65;99608.81;5112251;28;20024;-26
2023/11/17 06:03:43;;;;;;;15.98;9.05;;;;;;;9.62;66.19;99607.19;5112251;28;20031;-28
2023/11/17 06:06:09;;;;;;;17.67;9.75;;;;;;;9.82;66.11;99606.41;5111901;28;20019;-29
2023/11/17 06:08:35;;;;;;;19.58;10.52;;;;;;;9.88;65.54;99602.94;5110781;28;20589;-26
2023/11/17 06:11:00;;;;;;;16.17;9.05;;;;;;;9.79;64.87;99586.38;5110500;28;20099;-27
2023/11/17 06:13:26;;;;;;;16.38;9.10;;;;;;;10.29;63.84;99583.34;5110238;28;20033;-28
2023/11/17 06:15:52;;;;;;;19.65;8.98;;;;;;;10.33;63.56;99592.59;5109710;28;20027;-26
2023/11/17 06:18:17;;;;;;;16.02;8.73;;;;;;;10.60;63.43;99606.66;5110107;28;20038;-27
2023/11/17 06:20:42;;;;;;;21.23;9.77;;;;;;;10.80;63.00;99611.97;5110179;28;20380;-27
2023/11/17 06:23:11;;;;;;;14.93;8.48;;;;;;;10.50;62.20;99620.41;5110537;28;20023;-27
2023/11/17 06:25:36;;;;;;;16.10;8.23;;;;;;;10.78;62.01;99605.22;5110135;28;20106;-28
2023/11/17 06:28:03;;;;;;;17.30;8.48;;;;;;;11.07;60.77;99607.38;5110401;28;20107;-28
2023/11/17 06:30:30;;;;;;;14.70;8.52;;;;;;;10.94;60.24;99578.94;5110830;28;20038;-30
2023/11/17 06:32:55;;;;;;;15.38;8.52;;;;;;;11.26;60.42;99579.03;5111000;28;20032;-29
2023/11/17 06:35:21;;;;;;;14.23;8.82;;;;;;;11.66;59.28;99564.69;5111584;28;20080;-27
2023/11/17 06:37:46;;;;;;;14.90;8.63;;;;;;;11.92;57.83;99553.88;5111271;28;20057;-27
2023/11/17 06:40:11;;;;;;;16.40;9.38;;;;;;;12.36;56.81;99555.78;5111174;28;20027;-27
2023/11/17 06:42:39;;;;;;;14.00;9.35;;;;;;;12.62;55.82;99558.19;5111093;28;20027;-27
2023/11/17 06:45:05;;;;;;;20.95;9.35;;;;;;;12.70;54.89;99552.56;5113589;28;20031;-27
2023/11/17 06:47:32;;;;;;;14.98;9.18;;;;;;;12.70;54.45;99554.41;5115294;28;20400;-27
2023/11/17 06:49:58;;;;;;;13.65;8.48;;;;;;;12.68;54.92;99546.63;5115439;28;20035;-28
2023/11/17 06:52:24;;;;;;;15.82;8.32;;;;;;;12.71;54.36;99540.81;5115286;28;20035;-28
2023/11/17 06:54:49;;;;;;;15.10;8.77;;;;;;;12.79;53.94;99552.25;5115241;28;20036;-26
2023/11/17 06:57:15;;;;;;;15.23;8.88;;;;;;;12.77;54.05;99554.34;5115235;28;20027;-27
2023/11/17 06:59:40;;;;;;;19.13;8.80;;;;;;;12.59;53.75;99555.97;5114989;28;20111;-27
2023/11/17 07:02:07;;;;;;;12.88;7.63;;;;;;;12.47;54.14;99555.88;5115089;28;20032;-29
2023/11/17 07:04:33;;;;;;;14.50;7.80;;;;;;;12.47;54.41;99558.53;5115264;28;20092;-27
2023/11/17 07:07:01;;;;;;;13.45;7.28;;;;;;;12.46;54.84;99564.09;5114895;28;20794;-27
2023/11/17 07:09:30;;;;;;;10.45;6.50;;;;;;;12.44;54.83;99575.00;5114939;28;20077;-26
2023/11/17 07:11:59;;;;;;;10.73;6.78;;;;;;;13.05;53.81;99585.88;5115300;28;20032;-27
2023/11/17 07:14:26;;;;;;;14.05;6.68;;;;;;;12.81;53.54;99574.22;5114844;28;20098;-28
2023/11/17 07:16:52;;;;;;;11.15;6.22;;;;;;;13.73;51.44;99575.97;5114780;28;20028;-28
2023/11/17 07:19:19;;;;;;;10.25;6.18;;;;;;;14.11;50.74;99566.72;5114744;28;20040;-26
2023/11/17 07:21:46;;;;;;;10.65;6.63;;;;;;;14.42;49.74;99558.38;5114242;28;20039;-28
2023/11/17 07:24:13;;;;;;;11.13;6.50;;;;;;;13.93;50.31;99544.38;5114198;28;20026;-27
2023/11/17 07:26:38;;;;;;;12.70;7.60;;;;;;;14.01;50.37;99532.53;5114340;28;20054;-27
2023/11/17 07:29:06;;;;;;;12.52;8.82;;;;;;;13.88;51.11;99525.56;5114424;28;20043;-28
2023/11/17 07:31:37;;;;;;;12.20;7.10;;;;;;;14.27;49.85;99525.91;5114662;28;20031;-27
2023/11/17 07:34:15;;;;;;;10.60;6.18;;;;;;;14.72;48.12;99543.28;5114559;28;20491;-29
2023/11/17 07:36:41;;;;;;;12.38;8.63;;;;;;;14.35;48.70;99530.91;5114220;28;20031;-27
2023/11/17 07:39:09;;;;;;;12.95;9.07;;;;;;;14.22;49.81;99526.63;5114489;28;20027;-28
2023/11/17 07:41:36;;;;;;;11.55;7.88;;;;;;;14.39;48.88;99533.94;5114227;28;20027;-28
2023/11/17 07:44:01;;;;;;;10.38;7.07;;;;;;;14.57;48.52;99522.34;5114231;27;20016;-27
2023/11/17 07:46:27;;;;;;;10.13;7.13;;;;;;;14.51;48.23;99515.19;5114169;28;20456;-28
2023/11/17 07:48:56;;;;;;;12.95;6.53;;;;;;;14.07;49.30;99523.59;5113123;28;20048;-29
2023/11/17 07:51:22;;;;;;;9.93;6.65;;;;;;;14.14;49.87;99518.94;5112639;28;20074;-27
2023/11/17 07:53:48;;;;;;;9.55;6.32;;;;;;;14.45;49.03;99496.34;5113142;28;20115;-28
2023/11/17 07:56:14;;;;;;;9.57;6.47;;;;;;;14.77;48.39;99500.50;5112524;28;20094;-27
2023/11/17 07:58:40;;;;;;;9.15;6.10;;;;;;;14.83;48.28;99502.22;5112616;28;20114;-29
2023/11/17 08:01:08;;;;;;;12.98;6.47;;;;;;;14.71;48.99;99507.63;5112938;28;20024;-28
2023/11/17 08:03:38;;;;;;;10.93;6.40;;;;;;;14.98;47.89;99517.81;5112960;28;20035;-28
2023/11/17 08:06:04;;;;;;;10.35;6.95;;;;;;;14.86;47.45;99497.22;5113073;28;20103;-28
2023/11/17 08:08:32;;;;;;;14.07;6.50;;;;;;;14.62;48.20;99507.19;5112584;28;20509;-27
2023/11/17 08:10:59;;;;;;;9.55;6.55;;;;;;;14.68;48.20;99508.13;5112505;28;20471;-28
2023/11/17 08:13:25;;;;;;;11.93;6.53;;;;;;;14.92;47.83;99516.88;5112812;28;20096;-29
2023/11/17 08:15:51;;;;;;;9.00;6.15;;;;;;;15.04;46.80;99492.72;5112936;28;20027;-27
2023/11/17 08:18:16;;;;;;;7.47;5.80;;;;;;;15.00;47.38;99495.09;5112255;28;20371;-28
2023/11/17 08:20:44;;;;;;;12.68;6.50;;;;;;;14.89;46.95;99473.69;5112527;28;20020;-28
2023/11/17 08:23:10;;;;;;;8.98;5.95;;;;;;;14.94;46.92;99481.81;5112186;28;20034;-28
2023/11/17 08:25:35;;;;;;;9.15;6.10;;;;;;;14.62;47.08;99493.81;5077165;28;20403;-27
2023/11/17 08:28:02;;;;;;;12.13;6.60;;;;;;;14.57;47.55;99512.44;5112037;28;20061;-29
2023/11/17 08:30:28;;;;;;;13.40;6.60;;;;;;;13.99;48.92;99495.31;5112182;28;20020;-28
2023/11/17 08:32:54;;;;;;;15.18;8.38;;;;;;;13.96;49.23;99503.00;5111807;28;20027;-27
2023/11/17 08:35:21;;;;;;;15.93;9.75;;;;;;;14.23;48.41;99506.03;5112031;28;20089;-28
2023/11/17 08:37:46;;;;;;;14.63;11.23;;;;;;;14.12;48.67;99496.94;5112016;28;20043;-28
2023/11/17 08:40:12;;;;;;;15.10;10.18;;;;;;;14.45;47.92;99490.19;5112017;28;20031;-28
2023/11/17 08:42:39;;;;;;;17.95;12.82;;;;;;;14.53;47.50;99480.97;5111865;28;20407;-28
2023/11/17 08:45:08;;;;;;;13.10;8.68;;;;;;;14.30;48.03;99477.28;5111900;28;20023;-28
2023/11/17 08:47:35;;;;;;;11.77;8.43;;;;;;;14.53;47.56;99487.16;5071681;28;1151950;-28
2023/11/17 08:50:02;;;;;;;13.35;7.88;;;;;;;14.62;47.32;99487.59;5113399;28;20031;-28
2023/11/17 08:52:33;;;;;;;11.65;7.60;;;;;;;14.25;47.96;99463.78;5112751;28;20035;-27
2023/11/17 08:54:58;;;;;;;13.48;7.57;;;;;;;14.39;47.71;99451.78;5113251;28;20065;-28
2023/11/17 08:57:25;;;;;;;11.27;7.97;;;;;;;14.72;46.94;99458.38;5112923;28;20092;-27
2023/11/17 08:59:50;;;;;;;11.88;7.75;;;;;;;14.69;47.68;99455.34;5112988;28;20033;-30
2023/11/17 09:02:15;;;;;;;13.93;8.02;;;;;;;14.89;46.59;99444.22;5112765;28;20015;-28
2023/11/17 09:04:43;;;;;;;15.55;7.07;;;;;;;15.16;46.61;99452.50;5112593;28;20023;-28
2023/11/17 09:07:09;;;;;;;12.43;6.70;;;;;;;15.33;45.36;99453.34;5111878;28;20032;-27
2023/11/17 09:09:34;;;;;;;13.90;6.85;;;;;;;15.12;46.04;99456.72;5112578;28;20024;-27
2023/11/17 09:12:00;;;;;;;10.70;7.00;;;;;;;14.87;46.31;99433.75;5112075;28;20038;-27
2023/11/17 09:14:26;;;;;;;10.70;6.40;;;;;;;14.81;46.64;99432.00;5112677;28;20018;-27
2023/11/17 09:16:53;;;;;;;9.95;6.22;;;;;;;14.83;46.41;99416.50;5112492;28;20479;-28
2023/11/17 09:19:18;;;;;;;9.23;6.13;;;;;;;15.01;45.88;99405.59;5112267;28;20027;-27
2023/11/17 09:21:44;;;;;;;9.55;5.60;;;;;;;15.40;46.09;99386.16;5112299;28;20032;-28
2023/11/17 09:24:09;;;;;;;9.70;6.22;;;;;;;15.42;44.25;99392.91;5112606;28;20076;-27
2023/11/17 09:26:35;;;;;;;10.70;6.18;;;;;;;15.56;44.55;99387.22;5112272;28;20483;-28
2023/11/17 09:29:00;;;;;;;14.88;6.55;;;;;;;15.74;44.18;99391.53;5112452;28;20115;-27
2023/11/17 09:31:26;;;;;;;10.30;6.32;;;;;;;15.68;45.35;99368.34;5112149;28;20131;-28
2023/11/17 09:33:52;;;;;;;8.85;5.53;;;;;;;15.89;43.86;99356.88;5112154;28;20034;-27
2023/11/17 09:36:17;;;;;;;9.85;6.28;;;;;;;15.51;44.44;99352.28;5112112;28;20092;-30
2023/11/17 09:38:43;;;;;;;9.73;5.93;;;;;;;15.97;44.20;99367.19;5112087;28;20547;-28
2023/11/17 09:41:09;;;;;;;11.88;5.90;;;;;;;16.19;43.09;99371.75;5112512;28;20159;-28
2023/11/17 09:43:37;;;;;;;9.57;5.70;;;;;;;16.30;42.51;99365.44;5112262;28;20027;-28
2023/11/17 09:46:05;;;;;;;11.60;6.07;;;;;;;16.34;42.34;99369.25;5112159;28;20539;-29
2023/11/17 09:48:33;;;;;;;8.57;5.97;;;;;;;15.52;44.66;99375.34;5111814;28;20048;-28
2023/11/17 09:51:02;;;;;;;8.30;5.55;;;;;;;15.60;44.34;99362.34;5111870;28;20149;-28
2023/11/17 09:53:32;;;;;;;9.45;5.90;;;;;;;16.10;43.91;99359.81;5112116;28;20031;-28
2023/11/17 09:55:58;;;;;;;8.88;6.03;;;;;;;16.34;42.72;99345.09;5112033;28;20027;-28
2023/11/17 09:58:26;;;;;;;9.93;6.00;;;;;;;16.44;42.56;99332.84;5111452;28;20525;-28
2023/11/17 10:00:51;;;;;;;10.52;5.85;;;;;;;16.35;42.66;99322.53;5111685;28;20032;-28
2023/11/17 10:03:19;;;;;;;10.27;6.43;;;;;;;16.13;43.28;99316.38;5111596;28;20028;-27
2023/11/17 10:05:47;;;;;;;12.10;6.63;;;;;;;16.14;43.08;99320.69;5111755;28;20102;-28
2023/11/17 10:08:15;;;;;;;9.63;6.28;;;;;;;16.00;43.93;99331.78;5111808;28;20027;-27
2023/11/17 10:10:47;;;;;;;14.55;6.80;;;;;;;16.25;43.13;99332.38;5111661;28;20217;-29
2023/11/17 10:13:16;;;;;;;12.95;7.13;;;;;;;16.09;43.02;99321.44;5111579;28;20023;-28
2023/11/17 10:15:46;;;;;;;11.27;6.87;;;;;;;16.22;43.76;99342.53;5111403;28;20107;-27
2023/11/17 10:18:16;;;;;;;;;;;;;;;16.67;42.73;99350.53;5111634;28;20153;-28
2023/11/17 10:20:41;;;;;;;13.60;8.52;;;;;;;16.52;43.09;99327.00;5111667;28;20307;-27
2023/11/17 10:23:07;;;;;;;15.57;10.63;;;;;;;16.51;43.32;99320.03;5111635;28;20023;-28
2023/11/17 10:25:34;;;;;;;13.95;9.65;;;;;;;16.46;42.63;99322.66;5112236;28;20027;-29
2023/11/17 10:28:02;;;;;;;14.20;9.18;;;;;;;16.53;43.84;99317.91;5111285;28;20104;-27
2023/11/17 10:30:30;;;;;;;11.57;7.32;;;;;;;16.61;42.93;99291.38;5111196;28;20059;-28
2023/11/17 10:33:07;;;;;;;11.13;6.80;;;;;;;16.57;43.39;99290.28;5111553;28;20406;-27
2023/11/17 10:35:34;;;;;;;16.27;7.80;;;;;;;16.65;43.61;99278.25;5111096;28;20019;-27
2023/11/17 10:38:04;;;;;;;15.48;7.57;;;;;;;16.36;43.76;99272.34;5111421;28;20015;-27
2023/11/17 10:40:31;;;;;;;13.93;8.05;;;;;;;16.07;44.01;99269.88;5092939;28;20024;-29
2023/11/17 10:43:07;;;;;;;9.73;7.40;;;;;;;16.09;44.99;99264.25;5110987;28;20023;-27
2023/11/17 10:45:37;;;;;;;13.43;7.55;;;;;;;16.23;43.65;99255.56;5110760;28;20023;-29
2023/11/17 10:48:08;;;;;;;10.95;7.60;;;;;;;16.35;43.88;99259.97;5110991;28;20032;-31
2023/11/17 10:50:38;;;;;;;11.50;7.15;;;;;;;16.26;44.11;99240.84;5111283;28;20031;-28
2023/11/17 10:53:20;;;;;;;12.95;7.30;;;;;;;16.12;44.01;99237.72;5110866;28;20023;-28
2023/11/17 10:55:51;;;;;;;13.35;7.15;;;;;;;16.07;44.19;99234.16;5111184;28;20059;-29
2023/11/17 10:58:16;;;;;;;10.98;7.18;;;;;;;16.33;43.64;99238.75;5111533;28;20027;-26
2023/11/17 11:00:47;;;;;;;12.30;7.15;;;;;;;16.53;43.89;99221.22;5111184;28;20032;-28
2023/11/17 11:03:13;;;;;;;14.05;7.30;;;;;;;16.42;43.93;99204.19;5111068;28;20111;-28
2023/11/17 11:05:46;;;;;;;11.02;6.72;;;;;;;16.70;42.77;99200.41;5099763;28;20020;-27
2023/11/17 11:08:16;;;;;;;10.70;7.07;;;;;;;16.66;45.57;99195.78;5111289;28;20027;-27
2023/11/17 11:10:55;;;;;;;10.35;5.72;;;;;;;17.04;56.71;99196.63;5093330;28;20046;-27
2023/11/17 11:13:28;;;;;;;14.13;7.00;;;;;;;16.57;45.88;99192.78;5111804;28;20407;-28
2023/11/17 11:16:08;;;;;;;10.75;6.90;;;;;;;16.78;45.63;99189.19;5111762;28;20482;-30
2023/11/17 11:18:55;;;;;;;9.95;6.10;;;;;;;17.49;53.08;99197.97;5111170;28;20035;-27
2023/11/17 11:21:22;;;;;;;12.55;6.80;;;;;;;17.87;44.35;99193.28;5110809;28;20420;-28
2023/11/17 11:23:49;;;;;;;11.88;6.32;;;;;;;18.31;49.35;99190.16;5110627;28;20023;-28
2023/11/17 11:26:17;;;;;;;10.38;6.00;;;;;;;18.86;47.13;99193.16;5111023;28;20026;-27
2023/11/17 11:28:45;;;;;;;9.73;6.05;;;;;;;19.16;48.58;99192.28;5111170;28;20048;-27
2023/11/17 11:31:15;;;;;;;11.77;6.55;;;;;;;19.32;47.57;99191.19;5112766;28;20035;-28
2023/11/17 11:33:41;;;;;;;9.60;6.50;;;;;;;18.86;39.72;99179.66;5114885;28;20050;-28